Boars Hill, United Kingdom
Current Conditions -  °F | °C
As of 10:20 AM on Friday 21 Nov 2014 (Local Time) from EGTK Reporting Station
Moderate Rain Moderate Rain  
Wind Chill: 43°   Ceiling: 1300
Heat Index: 43°   Visibility: 0.81mi
Dew Point: 43°   Wind: 3mph
Humidity: 100%   Direction: 80°E
Pressure: 30.09"   Gusts: NA
Location:  51.72°N, 1.29°W
Report Text: EGTK 211020Z 08003KT 1300 R19/P2000 RA BR FEW010 BKN013 06/06 Q1019
Loading
Personal Weather Stations






























Interactive Weather Map New forecast layout! Learn more

10-Day Weather Forecast

Advertisements
Track Severe Weather on mobile